Main page
METAR-TAF:

METAR-TAF

Airports :

Lannion – Côte de Granit Airport

Lannion, France

latitude: 48-45N, longitude: 003-28W, elevation: 89 m

Current weather observation

The report was made 15 minutes ago, at 09:30 UTC
Wind 6 kt from the North, varying between West/Northwest and North/Northeast
Temperature 14°C
Humidity 77%
Pressure 1011 hPa
Visibility 10 km or more
Broken clouds at a height of 1500 ft
Broken clouds at a height of 16000 ft

METAR: LFRO 190930Z AUTO 35006KT 300V030 9999 BKN015 BKN160 14/10 Q1011

Time: 11:45 (09:45 UTC)


TAF: missing

Weather observations and forecasts of more than 4000 airports (METAR and TAF reports).

The available stations are represented by yellow and red dots on the map.

Hover mouse over dot to see the name of the station.

Then click to see weather observations and forecasts.

To change the map : click on the green buttons with a black cross to zoom in, on the green button with a dash to zoom out, or on the green arrows for adjacent maps.


METAR-TAF: